Time;durP1;ratioP1;P1;durP2;ratioP2;P2;SDS_P1;SDS_P2;PMS_P1;PMS_P2;Temp;Humidity;BMP_temperature;BMP_pressure;BME280_temperature;BME280_humidity;BME280_pressure;Samples;Min_cycle;Max_cycle;Signal;HPM_P1;HPM_P2
2020/12/09 00:00:09;;;;;;;31.73;11.45;;;;;;;-4.59;65.57;102073.52;1748706;79;21083;-81
2020/12/09 00:02:39;;;;;;;26.00;12.58;;;;;;;-4.54;65.64;102091.98;1722283;81;21035;-81
2020/12/09 00:05:11;;;;;;;21.48;9.78;;;;;;;-4.54;65.71;102078.75;1760278;79;21471;-82
2020/12/09 00:07:39;;;;;;;24.27;9.60;;;;;;;-4.53;65.67;102084.77;1751891;79;21038;-82
2020/12/09 00:10:08;;;;;;;29.02;10.45;;;;;;;-4.49;65.70;102086.55;1752761;78;21022;-81
2020/12/09 00:12:37;;;;;;;19.55;9.75;;;;;;;-4.50;65.69;102081.85;1770995;78;21184;-82
2020/12/09 00:15:08;;;;;;;19.85;9.15;;;;;;;-4.48;65.71;102089.58;1808218;77;20999;-79
2020/12/09 00:17:36;;;;;;;23.98;10.30;;;;;;;-4.44;65.67;102086.28;1721672;81;21436;-81
2020/12/09 00:20:04;;;;;;;22.30;11.48;;;;;;;-4.44;65.74;102080.73;1752007;80;21733;-82
2020/12/09 00:22:34;;;;;;;22.50;11.30;;;;;;;-4.44;65.84;102080.73;1788208;77;21044;-82
2020/12/09 00:25:04;;;;;;;26.93;11.38;;;;;;;-4.44;66.02;102075.61;1796109;78;20990;-81
2020/12/09 00:27:35;;;;;;;21.02;10.63;;;;;;;-4.47;66.21;102072.99;1796544;78;21560;-79
2020/12/09 00:30:07;;;;;;;26.80;10.95;;;;;;;-4.49;66.39;102082.71;1794051;77;21162;-81
2020/12/09 00:32:45;;;;;;;19.60;10.63;;;;;;;-4.48;66.51;102072.52;1785004;77;20962;-81
2020/12/09 00:35:18;;;;;;;37.03;13.55;;;;;;;-4.48;66.77;102070.38;1790173;77;20963;-81
2020/12/09 00:37:49;;;;;;;35.88;12.93;;;;;;;-4.46;66.83;102073.42;1798963;77;21581;-78
2020/12/09 00:40:17;;;;;;;27.60;13.60;;;;;;;-4.45;66.98;102067.89;1790713;77;20898;-77
2020/12/09 00:42:45;;;;;;;21.45;11.60;;;;;;;-4.46;66.90;102062.33;1802229;77;20910;-80
2020/12/09 00:45:13;;;;;;;23.15;11.15;;;;;;;-4.47;67.20;102072.99;1751337;80;21197;-78
2020/12/09 00:47:42;;;;;;;25.88;10.98;;;;;;;-4.48;67.20;102066.12;1742904;79;21105;-78
2020/12/09 00:52:43;;;;;;;18.27;9.03;;;;;;;-4.47;67.21;102058.91;1748207;81;21101;-73
2020/12/09 00:55:12;;;;;;;20.15;10.13;;;;;;;-4.44;67.47;102070.91;1753839;80;21214;-75
2020/12/09 00:57:41;;;;;;;22.87;10.10;;;;;;;-4.44;67.38;102068.36;1754054;80;20993;-74
2020/12/09 01:00:10;;;;;;;27.07;12.00;;;;;;;-4.45;67.66;102074.28;1754361;80;21588;-73
2020/12/09 01:02:39;;;;;;;21.80;10.03;;;;;;;-4.45;67.68;102061.06;1751467;80;21109;-74
2020/12/09 01:05:09;;;;;;;23.70;11.25;;;;;;;-4.45;67.74;102064.05;1751931;80;21136;-74
2020/12/09 01:07:37;;;;;;;22.27;10.63;;;;;;;-4.46;67.82;102060.63;1747702;80;21072;-75
2020/12/09 01:10:06;;;;;;;17.30;8.13;;;;;;;-4.44;67.83;102069.64;1752666;80;20930;-74
2020/12/09 01:12:34;;;;;;;23.00;9.53;;;;;;;-4.45;67.94;102065.33;1753883;79;20968;-75
2020/12/09 01:15:02;;;;;;;19.90;9.08;;;;;;;-4.46;67.94;102067.03;1753299;81;20994;-74
2020/12/09 01:17:30;;;;;;;19.87;9.75;;;;;;;-4.44;68.07;102070.91;1756545;80;21013;-74
2020/12/09 01:20:00;;;;;;;18.27;8.55;;;;;;;-4.38;68.01;102076.16;1757369;80;21167;-73
2020/12/09 01:22:27;;;;;;;20.85;10.40;;;;;;;-4.35;67.94;102080.52;1753623;80;20993;-76
2020/12/09 01:24:56;;;;;;;15.78;9.33;;;;;;;-4.31;67.90;102084.86;1753644;80;21112;-74
2020/12/09 01:27:24;;;;;;;25.00;10.53;;;;;;;-4.29;67.91;102089.23;1756853;80;20933;-74
2020/12/09 01:29:52;;;;;;;18.57;10.08;;;;;;;-4.27;67.87;102085.01;1751486;80;20954;-74
2020/12/09 01:32:21;;;;;;;20.40;10.28;;;;;;;-4.24;67.87;102089.34;1751444;80;21148;-74
2020/12/09 01:34:50;;;;;;;19.23;9.43;;;;;;;-4.21;67.74;102090.26;1749310;80;20993;-73
2020/12/09 01:37:19;;;;;;;19.27;9.63;;;;;;;-4.11;67.69;102091.75;1754635;80;21004;-74
2020/12/09 01:39:47;;;;;;;18.32;8.98;;;;;;;-4.07;67.58;102090.61;1757409;80;21012;-75
2020/12/09 01:42:16;;;;;;;20.30;10.03;;;;;;;-4.05;67.42;102083.80;1753737;80;21057;-74
2020/12/09 01:44:44;;;;;;;20.37;9.60;;;;;;;-3.99;67.29;102090.78;1753844;80;22113;-75
2020/12/09 01:47:12;;;;;;;26.95;10.90;;;;;;;-3.95;67.21;102096.44;1761579;80;20930;-75
2020/12/09 01:49:40;;;;;;;24.55;11.95;;;;;;;-3.93;67.16;102097.34;1761307;80;20989;-74
2020/12/09 01:52:08;;;;;;;23.77;11.15;;;;;;;-3.92;67.26;102093.07;1760247;79;20998;-74
2020/12/09 01:54:36;;;;;;;23.38;11.40;;;;;;;-3.91;67.38;102098.63;1759864;80;21037;-74
2020/12/09 01:57:08;;;;;;;26.33;11.90;;;;;;;-3.86;67.25;102091.94;1761092;80;21406;-73
2020/12/09 01:59:39;;;;;;;;;;;;;;;-3.85;67.23;102089.39;1787656;79;21096;-74
2020/12/09 02:02:07;;;;;;;19.75;8.93;;;;;;;-3.79;67.11;102089.97;1759513;80;20127;-74
2020/12/09 02:04:35;;;;;;;18.50;9.20;;;;;;;-3.75;67.08;102102.02;1758710;80;20966;-74
2020/12/09 02:07:04;;;;;;;19.20;7.80;;;;;;;-3.73;66.97;102097.80;1757055;80;20961;-76
2020/12/09 02:09:32;;;;;;;22.00;11.35;;;;;;;-3.72;66.96;102093.53;1757271;80;21146;-75
2020/12/09 02:12:01;;;;;;;23.20;11.65;;;;;;;-3.71;66.94;102093.58;1753266;80;20965;-74
2020/12/09 02:14:29;;;;;;;16.12;8.55;;;;;;;-3.65;66.80;102095.39;1755913;80;21448;-74
2020/12/09 02:16:58;;;;;;;17.92;9.18;;;;;;;-3.62;66.79;102103.17;1753017;81;20993;-75
2020/12/09 02:19:27;;;;;;;17.55;9.75;;;;;;;-3.61;66.85;102108.31;1752001;80;20980;-74
2020/12/09 02:21:55;;;;;;;18.27;8.90;;;;;;;-3.59;66.92;102092.55;1775480;79;21198;-75
2020/12/09 02:24:25;;;;;;;17.00;10.63;;;;;;;-3.54;66.85;102095.21;1703029;80;21093;-76
2020/12/09 02:26:54;;;;;;;18.00;9.55;;;;;;;-3.48;66.79;102094.49;1744053;79;21045;-76
2020/12/09 02:29:22;;;;;;;21.48;8.95;;;;;;;-3.46;66.74;102094.97;1752139;80;21631;-76
2020/12/09 02:31:50;;;;;;;14.58;8.10;;;;;;;-3.45;66.72;102088.99;1746380;80;20958;-76
2020/12/09 02:34:18;;;;;;;15.55;7.83;;;;;;;-3.40;66.63;102090.38;1751647;80;21161;-75
2020/12/09 02:36:46;;;;;;;21.77;8.70;;;;;;;-3.40;66.67;102092.94;1752311;79;20934;-76
2020/12/09 02:39:14;;;;;;;17.10;8.35;;;;;;;-3.41;66.72;102093.36;1746942;80;20969;-76
2020/12/09 02:41:42;;;;;;;15.10;8.30;;;;;;;-3.42;66.80;102097.20;1730694;80;20953;-76
2020/12/09 02:44:09;;;;;;;14.05;7.67;;;;;;;-3.43;66.88;102098.87;1757848;80;20945;-75
2020/12/09 02:46:37;;;;;;;17.23;8.58;;;;;;;-3.40;66.99;102099.34;1758050;80;22209;-75
2020/12/09 02:49:05;;;;;;;17.57;8.50;;;;;;;-3.35;67.00;102099.05;1755334;80;21025;-75
2020/12/09 02:51:32;;;;;;;23.92;11.40;;;;;;;-3.34;67.02;102093.93;1756035;80;20960;-74
2020/12/09 02:54:00;;;;;;;18.62;9.00;;;;;;;-3.29;67.03;102105.99;1751056;80;20906;-74
2020/12/09 02:56:28;;;;;;;17.05;9.53;;;;;;;-3.27;67.15;102103.05;1756187;79;20939;-79
2020/12/09 02:58:57;;;;;;;16.82;8.18;;;;;;;-3.24;67.08;102102.70;1779644;79;21558;-79
2020/12/09 03:01:25;;;;;;;16.17;8.40;;;;;;;-3.23;67.10;102108.70;1754329;80;21467;-78
2020/12/09 03:03:53;;;;;;;18.73;9.03;;;;;;;-3.21;66.99;102105.32;1756620;80;21076;-77
2020/12/09 03:06:24;;;;;;;17.57;8.63;;;;;;;-3.20;66.91;102110.92;1753871;80;21391;-78
2020/12/09 03:08:52;;;;;;;15.28;8.15;;;;;;;-3.20;66.85;102106.18;1758557;80;21388;-78
2020/12/09 03:11:20;;;;;;;15.15;8.80;;;;;;;-3.20;66.86;102108.35;1751132;80;21047;-79
2020/12/09 03:13:48;;;;;;;24.20;10.68;;;;;;;-3.21;66.87;102109.59;1754620;80;20961;-78
2020/12/09 03:16:17;;;;;;;15.55;9.50;;;;;;;-3.19;66.80;102101.52;1774027;79;21021;-78
2020/12/09 03:18:45;;;;;;;19.37;8.83;;;;;;;-3.18;66.73;102105.41;1764309;79;21438;-79
2020/12/09 03:21:13;;;;;;;18.75;9.00;;;;;;;-3.18;66.69;102110.92;1761553;79;21585;-78
2020/12/09 03:23:41;;;;;;;14.60;8.03;;;;;;;-3.20;66.67;102101.94;1764345;79;21724;-78
2020/12/09 03:26:10;;;;;;;15.90;8.73;;;;;;;-3.22;66.80;102102.32;1783803;79;20930;-78
2020/12/09 03:28:37;;;;;;;14.18;7.47;;;;;;;-3.21;66.77;102111.73;1778423;79;21456;-78
2020/12/09 03:31:06;;;;;;;15.78;9.35;;;;;;;-3.19;66.74;102116.48;1777879;78;20968;-77
2020/12/09 03:33:35;;;;;;;13.30;7.42;;;;;;;-3.18;66.69;102110.92;1759445;79;20997;-76
2020/12/09 03:36:04;;;;;;;15.23;8.35;;;;;;;-3.19;66.71;102123.32;1763837;80;21163;-77
2020/12/09 03:38:32;;;;;;;20.82;10.85;;;;;;;-3.16;66.55;102123.38;1769983;79;21523;-77
2020/12/09 03:41:00;;;;;;;15.53;10.08;;;;;;;-3.15;66.54;102122.13;1760694;79;21589;-76
2020/12/09 03:43:28;;;;;;;19.70;10.20;;;;;;;-3.12;66.44;102125.17;1768675;79;21132;-76
2020/12/09 03:45:56;;;;;;;21.70;10.53;;;;;;;-3.13;66.45;102128.16;1759379;80;20993;-79
2020/12/09 03:48:24;;;;;;;16.23;9.05;;;;;;;-3.13;66.45;102125.59;1782564;79;21231;-77
2020/12/09 03:50:52;;;;;;;17.55;9.05;;;;;;;-3.11;66.58;102130.77;1765106;80;21518;-77
2020/12/09 03:53:21;;;;;;;9.78;6.40;;;;;;;-3.09;66.55;102121.80;1759112;80;20917;-77
2020/12/09 03:55:49;;;;;;;16.55;8.95;;;;;;;-3.10;66.63;102125.22;1777688;79;20950;-78
2020/12/09 03:58:17;;;;;;;19.15;9.63;;;;;;;-3.06;66.59;102127.88;1758343;80;21060;-78
2020/12/09 04:00:45;;;;;;;22.13;9.75;;;;;;;-3.03;66.50;102134.34;1776462;78;21162;-78
2020/12/09 04:03:13;;;;;;;21.35;9.53;;;;;;;-3.00;66.44;102130.96;1783421;79;20957;-78
2020/12/09 04:05:40;;;;;;;24.25;9.83;;;;;;;-2.96;66.35;102128.91;1782306;79;20941;-78
2020/12/09 04:08:11;;;;;;;15.70;8.65;;;;;;;-2.93;66.24;102126.42;1759529;80;20929;-78
2020/12/09 04:10:38;;;;;;;12.40;7.17;;;;;;;-2.93;66.23;102141.83;1759618;79;20945;-79
2020/12/09 04:13:06;;;;;;;17.73;9.43;;;;;;;-2.95;66.31;102127.67;1763938;80;21156;-79
2020/12/09 04:15:34;;;;;;;16.25;9.08;;;;;;;-2.95;66.41;102131.94;1758157;79;21020;-78
2020/12/09 04:18:03;;;;;;;21.17;9.75;;;;;;;-2.94;66.40;102133.23;1796826;78;20945;-79
2020/12/09 04:20:31;;;;;;;18.40;9.38;;;;;;;-2.91;66.28;102136.30;1773253;79;20947;-78
2020/12/09 04:22:58;;;;;;;30.05;12.88;;;;;;;-2.89;66.28;102129.90;1764080;79;21339;-82
2020/12/09 04:25:26;;;;;;;26.55;12.03;;;;;;;-2.91;66.28;102144.00;1771219;79;22133;-81
2020/12/09 04:27:58;;;;;;;18.57;10.60;;;;;;;-2.88;66.32;102145.77;1766871;79;21028;-79
2020/12/09 04:30:24;;;;;;;17.95;8.65;;;;;;;-2.91;66.24;102141.44;1759181;79;21044;-79
2020/12/09 04:32:51;;;;;;;14.68;8.28;;;;;;;-2.93;66.18;102141.41;1763299;79;21452;-78
2020/12/09 04:35:20;;;;;;;19.32;8.43;;;;;;;-2.96;66.18;102136.61;1759437;80;20964;-78
2020/12/09 04:37:54;;;;;;;15.58;9.93;;;;;;;-2.98;66.18;102138.28;1768865;80;20993;-77
2020/12/09 04:40:18;;;;;;;15.93;8.60;;;;;;;-2.99;66.20;102142.98;1758788;79;20973;-79
2020/12/09 04:42:59;;;;;;;18.12;10.25;;;;;;;-3.03;66.16;102138.19;1759193;78;20981;-80
2020/12/09 04:45:31;;;;;;;15.35;8.95;;;;;;;-3.09;66.23;102152.59;1765136;78;21025;-79
2020/12/09 04:48:13;;;;;;;16.82;9.60;;;;;;;-3.11;66.24;102152.58;1760375;80;20945;-79
2020/12/09 04:51:19;;;;;;;14.07;8.43;;;;;;;-3.10;66.03;102148.31;1759451;79;21117;-80
2020/12/09 04:53:46;;;;;;;27.15;11.97;;;;;;;-3.12;65.73;102164.52;1758972;78;21784;-79
2020/12/09 04:56:14;;;;;;;24.92;10.88;;;;;;;-3.18;65.76;102167.37;1756179;78;21008;-78
2020/12/09 04:58:44;;;;;;;28.52;11.93;;;;;;;-3.25;65.87;102165.09;1720168;78;21503;-79
2020/12/09 05:01:14;;;;;;;20.57;9.43;;;;;;;-3.26;65.75;102174.91;1761433;80;20914;-79
2020/12/09 05:03:47;;;;;;;21.85;9.63;;;;;;;-3.31;65.70;102177.80;1754018;80;21155;-76
2020/12/09 05:06:17;;;;;;;21.95;10.00;;;;;;;-3.36;65.60;102175.53;1735322;79;21025;-76
2020/12/09 05:08:53;;;;;;;20.60;8.55;;;;;;;-3.43;65.70;102176.23;1785024;79;21492;-76
2020/12/09 05:11:22;;;;;;;15.83;8.58;;;;;;;-3.46;65.79;102169.34;1745650;81;21014;-75
2020/12/09 05:13:56;;;;;;;15.45;8.45;;;;;;;-3.47;65.73;102189.38;1735450;80;21476;-76
2020/12/09 05:16:23;;;;;;;17.77;10.45;;;;;;;-3.49;65.71;102187.23;1743504;80;21447;-76
2020/12/09 05:18:58;;;;;;;19.02;9.88;;;;;;;-3.55;65.71;102181.53;1737650;80;20991;-75
2020/12/09 05:21:26;;;;;;;17.77;9.13;;;;;;;-3.60;65.74;102189.92;1748196;80;21388;-76
2020/12/09 05:23:59;;;;;;;17.10;8.53;;;;;;;-3.61;65.64;102189.48;1733847;80;20958;-75
2020/12/09 05:26:33;;;;;;;18.05;8.40;;;;;;;-3.68;65.69;102178.64;1780645;79;21042;-75
2020/12/09 05:30:16;;;;;;;17.48;9.15;;;;;;;-3.71;65.92;102178.16;1845024;76;22606;-79
2020/12/09 05:32:53;;;;;;;20.55;11.25;;;;;;;-3.77;65.96;102180.57;1752210;80;22482;-78
2020/12/09 05:35:21;;;;;;;17.42;9.73;;;;;;;-3.73;65.85;102187.51;1786664;79;21110;-77
2020/12/09 05:38:06;;;;;;;25.17;9.18;;;;;;;-3.70;65.58;102182.87;1755820;80;21521;-75
2020/12/09 05:40:34;;;;;;;24.72;9.25;;;;;;;-3.74;65.51;102185.76;1705384;82;21570;-75
2020/12/09 05:43:02;;;;;;;20.65;9.08;;;;;;;-3.73;65.48;102191.74;1658173;85;20997;-75
2020/12/09 05:45:30;;;;;;;15.93;7.75;;;;;;;-3.74;65.38;102184.48;1687508;83;21385;-76
2020/12/09 05:48:24;;;;;;;14.28;8.93;;;;;;;-3.75;65.39;102191.30;1658309;85;21172;-80
2020/12/09 05:50:58;;;;;;;22.27;10.10;;;;;;;-3.73;65.29;102181.10;1687838;83;21055;-79
2020/12/09 05:53:31;;;;;;;23.05;9.85;;;;;;;-3.75;65.37;102190.45;1719612;82;20988;-77
2020/12/09 05:56:15;;;;;;;17.40;9.73;;;;;;;-3.77;65.34;102190.83;1719577;82;21028;-73
2020/12/09 05:58:51;;;;;;;23.38;12.13;;;;;;;-3.75;65.50;102190.02;1890258;76;22697;-74
2020/12/09 06:01:28;;;;;;;18.07;9.83;;;;;;;-3.81;65.54;102186.45;1827906;77;21380;-76
2020/12/09 06:03:57;;;;;;;23.40;10.80;;;;;;;-3.80;65.57;102197.14;1827903;77;21133;-77
2020/12/09 06:06:29;;;;;;;21.15;12.03;;;;;;;-3.83;65.59;102188.96;1827301;77;21511;-77
2020/12/09 06:09:00;;;;;;;26.33;13.32;;;;;;;-3.84;65.68;102188.95;1827808;77;20942;-77
2020/12/09 06:11:33;;;;;;;24.82;11.88;;;;;;;-3.85;65.73;102191.04;1855917;77;20898;-76
2020/12/09 06:14:01;;;;;;;29.67;11.55;;;;;;;-3.85;65.76;102193.18;1827703;77;20895;-76
2020/12/09 06:16:29;;;;;;;19.45;9.70;;;;;;;-3.87;65.76;102190.13;1827681;77;21148;-77
2020/12/09 06:18:57;;;;;;;26.20;10.48;;;;;;;-3.89;65.92;102187.95;1827600;77;21012;-77
2020/12/09 06:21:25;;;;;;;26.37;11.45;;;;;;;-3.88;65.96;102193.12;1827844;77;20970;-74
2020/12/09 06:23:53;;;;;;;22.93;12.10;;;;;;;-3.85;65.92;102188.05;1827629;77;21033;-76
2020/12/09 06:26:21;;;;;;;23.40;10.45;;;;;;;-3.83;65.98;102190.24;1827650;77;21108;-75
2020/12/09 06:28:50;;;;;;;31.75;14.35;;;;;;;-3.83;65.94;102188.96;1827357;77;21378;-76
2020/12/09 06:31:20;;;;;;;40.52;15.38;;;;;;;-3.80;65.91;102192.01;1827537;77;21024;-75
2020/12/09 06:33:54;;;;;;;28.47;13.58;;;;;;;-3.77;65.97;102217.31;1855727;76;21582;-75
2020/12/09 06:36:31;;;;;;;23.05;10.85;;;;;;;-3.73;65.88;102187.90;1855857;77;21348;-75
2020/12/09 06:39:12;;;;;;;23.65;11.88;;;;;;;-3.73;65.88;102194.30;1827501;77;21049;-74
2020/12/09 06:42:00;;;;;;;23.85;11.38;;;;;;;-3.71;65.93;102189.70;1861019;77;21365;-75
2020/12/09 06:44:47;;;;;;;21.77;12.13;;;;;;;-3.63;65.70;102200.98;1855609;77;21068;-74
2020/12/09 06:47:16;;;;;;;25.72;12.47;;;;;;;-3.61;65.56;102212.56;1855505;77;20977;-76
2020/12/09 06:49:45;;;;;;;25.35;13.40;;;;;;;-3.59;65.51;102205.78;1827497;77;21013;-75
2020/12/09 06:52:32;;;;;;;24.32;13.85;;;;;;;-3.55;65.36;102214.00;1855655;77;21052;-76
2020/12/09 06:55:02;;;;;;;33.10;13.95;;;;;;;-3.52;65.24;102215.77;1827719;77;21167;-74
2020/12/09 06:57:35;;;;;;;27.15;12.33;;;;;;;-3.53;65.32;102198.23;1814690;78;21377;-74
2020/12/09 07:00:22;;;;;;;24.70;12.65;;;;;;;-3.48;65.27;102196.64;1758977;80;21508;-75
2020/12/09 07:02:52;;;;;;;31.25;13.22;;;;;;;-3.37;65.07;102195.61;1737487;81;20954;-75
2020/12/09 07:05:27;;;;;;;26.80;10.90;;;;;;;-3.30;64.83;102197.90;1736315;81;21050;-75
2020/12/09 07:08:04;;;;;;;19.25;10.48;;;;;;;-3.30;64.67;102192.77;1758612;80;21256;-74
2020/12/09 07:10:33;;;;;;;21.60;9.93;;;;;;;-3.34;64.68;102200.80;1715086;81;21046;-75
2020/12/09 07:13:19;;;;;;;18.82;9.75;;;;;;;-3.43;64.92;102193.75;1679624;84;21016;-76
2020/12/09 07:15:53;;;;;;;21.60;10.93;;;;;;;-3.46;65.22;102199.25;1703696;83;20925;-77
2020/12/09 07:18:21;;;;;;;23.30;10.48;;;;;;;-3.48;65.34;102195.36;1673182;84;21436;-79
2020/12/09 07:20:50;;;;;;;18.75;9.50;;;;;;;-3.47;65.52;102200.92;1673309;84;21185;-79
2020/12/09 07:23:19;;;;;;;17.37;10.63;;;;;;;-3.39;65.48;102189.16;1673464;84;21050;-76
2020/12/09 07:25:47;;;;;;;18.45;9.45;;;;;;;-3.32;65.37;102195.28;1673310;84;20982;-76
2020/12/09 07:28:16;;;;;;;21.35;10.48;;;;;;;-3.28;65.36;102198.80;1673445;84;20999;-78
2020/12/09 07:30:47;;;;;;;26.07;11.53;;;;;;;-3.25;65.34;102203.98;1698182;84;20974;-76
2020/12/09 07:33:17;;;;;;;20.23;11.48;;;;;;;-3.20;65.43;102195.97;1697667;84;21141;-76
2020/12/09 07:35:47;;;;;;;18.05;10.13;;;;;;;-3.12;65.32;102204.28;1697254;84;20994;-78
2020/12/09 07:38:16;;;;;;;22.05;12.43;;;;;;;-3.03;65.12;102210.46;1673736;84;21413;-77
2020/12/09 07:40:43;;;;;;;18.20;11.08;;;;;;;-3.04;65.05;102203.19;1673420;84;21031;-76
2020/12/09 07:43:13;;;;;;;27.62;10.80;;;;;;;-3.03;65.16;102201.05;1673215;84;21018;-77
2020/12/09 07:45:44;;;;;;;19.80;11.10;;;;;;;-2.97;65.07;102201.62;1696496;84;21184;-77
2020/12/09 07:48:16;;;;;;;24.87;12.33;;;;;;;-2.90;65.02;102217.59;1697059;84;21069;-78
2020/12/09 07:50:51;;;;;;;24.45;11.40;;;;;;;-2.86;64.77;102212.98;1673348;84;20991;-76
2020/12/09 07:53:20;;;;;;;23.65;12.50;;;;;;;-2.82;64.75;102201.08;1673321;84;21002;-78
2020/12/09 07:55:48;;;;;;;23.27;11.25;;;;;;;-2.83;64.77;102201.91;1673327;84;21544;-77
2020/12/09 07:58:17;;;;;;;20.95;11.80;;;;;;;-2.83;64.84;102194.20;1673284;84;21178;-78
2020/12/09 08:00:48;;;;;;;27.15;11.33;;;;;;;-2.80;64.88;102198.10;1697389;84;20986;-78
2020/12/09 08:03:23;;;;;;;23.00;10.60;;;;;;;-2.74;64.81;102200.38;1673172;84;21041;-78
2020/12/09 08:05:53;;;;;;;30.48;13.18;;;;;;;-2.71;64.72;102200.45;1673345;84;21093;-79
2020/12/09 08:08:21;;;;;;;23.18;11.10;;;;;;;-2.68;64.73;102197.51;1696953;84;21062;-78
2020/12/09 08:10:51;;;;;;;23.67;12.03;;;;;;;-2.63;64.82;102207.02;1673352;84;21177;-77
2020/12/09 08:13:23;;;;;;;23.00;11.12;;;;;;;-2.54;64.70;102198.63;1673434;84;21547;-78
2020/12/09 08:16:11;;;;;;;25.72;12.20;;;;;;;-2.44;64.45;102200.55;1673157;84;21046;-78
2020/12/09 08:18:39;;;;;;;24.52;11.10;;;;;;;-2.37;64.20;102192.12;1673296;84;21393;-76
2020/12/09 08:21:10;;;;;;;24.32;12.68;;;;;;;-2.33;64.17;102193.05;1673245;84;21136;-76
2020/12/09 08:23:49;;;;;;;22.45;11.48;;;;;;;-2.31;64.10;102197.38;1673323;84;22139;-77
2020/12/09 08:26:29;;;;;;;28.35;13.22;;;;;;;-2.33;64.18;102195.20;1673249;84;20951;-76
2020/12/09 08:28:58;;;;;;;26.12;12.65;;;;;;;-2.35;64.34;102190.45;1673132;84;20979;-76
2020/12/09 08:31:26;;;;;;;22.25;10.80;;;;;;;-2.25;64.24;102187.61;1673220;84;21396;-78
2020/12/09 08:33:54;;;;;;;21.75;11.38;;;;;;;-2.16;64.14;102195.91;1673198;84;20990;-77
2020/12/09 08:36:23;;;;;;;22.35;11.83;;;;;;;-2.13;63.99;102189.13;1673144;84;21034;-75
2020/12/09 08:38:58;;;;;;;20.10;10.58;;;;;;;-2.14;63.97;102186.53;1673243;84;21059;-75
2020/12/09 08:41:28;;;;;;;25.68;11.93;;;;;;;-2.09;64.03;102187.07;1673308;84;21462;-77
2020/12/09 08:44:01;;;;;;;29.72;12.25;;;;;;;-2.01;63.99;102181.19;1673229;84;20943;-76
2020/12/09 08:46:29;;;;;;;25.97;13.20;;;;;;;-1.93;63.73;102179.63;1673262;84;20947;-78
2020/12/09 08:48:57;;;;;;;28.15;14.53;;;;;;;-1.90;63.69;102183.09;1673247;84;21191;-76
2020/12/09 08:51:29;;;;;;;35.98;14.75;;;;;;;-1.81;63.50;102184.09;1673068;84;21038;-76
2020/12/09 08:53:59;;;;;;;29.50;14.80;;;;;;;-1.77;63.36;102175.16;1673255;84;20987;-77
2020/12/09 08:56:32;;;;;;;21.25;12.37;;;;;;;-1.70;63.27;102165.84;1696963;84;20943;-80
2020/12/09 08:59:01;;;;;;;21.65;11.55;;;;;;;-1.63;63.07;102169.37;1673191;84;21168;-80
2020/12/09 09:01:35;;;;;;;28.40;12.47;;;;;;;-1.57;62.81;102170.33;1673255;84;22210;-79
2020/12/09 09:04:07;;;;;;;29.35;13.78;;;;;;;-1.55;62.72;102163.94;1673196;84;21053;-79
2020/12/09 09:06:35;;;;;;;26.33;13.38;;;;;;;-1.53;62.58;102164.39;1673259;84;21484;-77
2020/12/09 09:09:04;;;;;;;24.52;13.05;;;;;;;-1.50;62.44;102166.14;1696413;84;21014;-77
2020/12/09 09:11:33;;;;;;;25.85;13.00;;;;;;;-1.50;62.46;102170.86;1676333;84;21018;-77
2020/12/09 09:14:01;;;;;;;29.32;14.50;;;;;;;-1.47;62.64;102166.17;1714353;82;21660;-77
2020/12/09 09:16:30;;;;;;;22.10;12.65;;;;;;;-1.36;62.49;102168.48;1750067;79;20945;-77
2020/12/09 09:18:58;;;;;;;24.95;12.50;;;;;;;-1.29;62.22;102169.44;1760733;80;20954;-78
2020/12/09 09:21:28;;;;;;;31.48;14.90;;;;;;;-1.29;62.22;102165.57;1760532;80;20977;-78
2020/12/09 09:23:56;;;;;;;28.98;13.50;;;;;;;-1.28;62.41;102160.45;1708629;80;20993;-79
2020/12/09 09:26:27;;;;;;;22.87;13.72;;;;;;;-1.19;62.16;102154.57;1760512;80;21729;-79
2020/12/09 09:28:54;;;;;;;27.75;14.60;;;;;;;-1.16;62.14;102153.74;1760544;80;21013;-78
2020/12/09 09:31:23;;;;;;;35.83;15.35;;;;;;;-1.09;62.12;102160.30;1760598;80;21037;-80
2020/12/09 09:33:51;;;;;;;32.93;15.25;;;;;;;-1.02;61.99;102157.38;1760543;80;21483;-82
2020/12/09 09:36:20;;;;;;;41.73;17.67;;;;;;;-0.94;61.84;102156.17;1760626;80;20902;-80
2020/12/09 09:38:50;;;;;;;30.40;15.03;;;;;;;-0.92;61.79;102154.05;1731362;80;21246;-83
2020/12/09 09:41:17;;;;;;;32.38;13.88;;;;;;;-0.84;61.81;102153.73;1760695;80;21045;-80
2020/12/09 09:43:45;;;;;;;27.45;13.85;;;;;;;-0.80;61.84;102151.17;1760693;80;21021;-77
2020/12/09 09:46:14;;;;;;;26.33;13.48;;;;;;;-0.75;61.90;102149.11;1760382;80;21045;-84
2020/12/09 09:48:43;;;;;;;26.62;12.73;;;;;;;-0.68;61.80;102138.45;1760683;80;20990;-86
2020/12/09 09:51:11;;;;;;;19.95;11.33;;;;;;;-0.68;61.91;102130.30;1760143;80;21041;-83
2020/12/09 09:53:41;;;;;;;23.85;11.12;;;;;;;-0.62;61.84;102134.66;1760683;80;21448;-84
2020/12/09 09:56:09;;;;;;;28.98;12.80;;;;;;;-0.60;61.91;102135.55;1760782;80;20958;-83
2020/12/09 09:58:37;;;;;;;20.80;11.20;;;;;;;-0.58;61.97;102132.97;1760459;80;21048;-81
2020/12/09 10:01:05;;;;;;;23.85;11.53;;;;;;;-0.58;62.08;102123.52;1760521;79;20985;-81
2020/12/09 10:03:33;;;;;;;23.70;13.20;;;;;;;-0.50;61.96;102124.47;1760601;80;22115;-79
2020/12/09 10:06:03;;;;;;;28.00;11.63;;;;;;;-0.44;61.91;102122.39;1760418;80;21112;-82
2020/12/09 10:08:31;;;;;;;18.42;10.05;;;;;;;-0.33;61.83;102127.66;1760598;80;20933;-81
2020/12/09 10:11:03;;;;;;;21.42;11.00;;;;;;;-0.24;61.68;102132.89;1760483;80;20954;-79
2020/12/09 10:13:32;;;;;;;25.60;12.90;;;;;;;-0.18;61.39;102134.64;1760581;80;20930;-80
2020/12/09 10:16:00;;;;;;;28.02;13.45;;;;;;;-0.14;61.31;102123.51;1753727;81;22116;-80
2020/12/09 10:18:29;;;;;;;22.00;11.12;;;;;;;-0.14;61.35;102116.63;1748045;78;21114;-78
2020/12/09 10:20:56;;;;;;;26.62;14.07;;;;;;;-0.07;61.22;102117.15;1752280;80;21524;-79
2020/12/09 10:23:25;;;;;;;25.95;12.20;;;;;;;-0.04;61.11;102122.31;1751942;80;20927;-79
2020/12/09 10:25:53;;;;;;;22.62;10.95;;;;;;;-0.02;61.04;102110.73;1752041;80;20924;-78
2020/12/09 10:28:21;;;;;;;26.12;11.48;;;;;;;-0.01;61.01;102105.56;1752233;80;22285;-80
2020/12/09 10:30:49;;;;;;;21.42;11.57;;;;;;;0.01;61.03;102099.58;1752127;80;21065;-80
2020/12/09 10:33:19;;;;;;;27.17;12.53;;;;;;;-0.01;61.10;102096.54;1751955;80;20987;-80
2020/12/09 10:35:47;;;;;;;26.33;12.30;;;;;;;0.04;61.08;102094.00;1752101;80;21093;-79
2020/12/09 10:38:15;;;;;;;22.48;11.90;;;;;;;0.09;60.94;102098.78;1745313;80;21374;-78
2020/12/09 10:40:44;;;;;;;19.60;10.43;;;;;;;0.11;60.84;102091.92;1752118;80;22130;-79
2020/12/09 10:43:13;;;;;;;22.82;11.05;;;;;;;0.16;60.55;102092.80;1752071;80;20943;-76
2020/12/09 10:45:46;;;;;;;20.00;10.03;;;;;;;0.17;60.43;102090.65;1750125;80;20931;-78
2020/12/09 10:48:14;;;;;;;15.20;9.90;;;;;;;0.22;60.33;102080.80;1753255;80;20935;-79
2020/12/09 10:50:42;;;;;;;22.45;10.25;;;;;;;0.24;60.35;102090.70;1752695;80;20900;-78
2020/12/09 10:53:14;;;;;;;17.37;9.30;;;;;;;0.28;60.00;102071.38;1753142;80;21164;-77
2020/12/09 10:55:42;;;;;;;19.85;10.20;;;;;;;0.31;59.79;102078.27;1752388;80;21005;-80
2020/12/09 10:58:10;;;;;;;23.38;10.50;;;;;;;0.32;59.62;102071.83;1752181;80;20987;-76
2020/12/09 11:00:39;;;;;;;18.40;10.50;;;;;;;0.36;59.56;102077.45;1752155;80;21002;-79
2020/12/09 11:03:07;;;;;;;22.35;9.90;;;;;;;0.43;59.30;102076.20;1753146;80;21066;-78
2020/12/09 11:05:35;;;;;;;18.02;10.38;;;;;;;0.46;59.29;102068.03;1752867;80;20994;-79
2020/12/09 11:08:03;;;;;;;23.62;10.23;;;;;;;0.48;59.26;102068.05;1752789;80;20919;-78
2020/12/09 11:10:31;;;;;;;16.12;10.08;;;;;;;0.51;58.96;102060.31;1752204;80;20931;-79
2020/12/09 11:12:59;;;;;;;18.45;10.72;;;;;;;0.50;58.82;102054.73;1752393;80;20967;-79
2020/12/09 11:15:27;;;;;;;21.37;11.97;;;;;;;0.50;58.95;102062.03;1752317;80;21026;-77
2020/12/09 11:17:55;;;;;;;20.43;11.45;;;;;;;0.52;58.76;102059.04;1752399;80;21148;-77
2020/12/09 11:20:23;;;;;;;26.17;10.30;;;;;;;0.55;58.71;102062.91;1734265;81;21515;-78
2020/12/09 11:22:52;;;;;;;16.67;9.58;;;;;;;0.56;58.68;102047.02;1747857;80;21030;-75
2020/12/09 11:25:23;;;;;;;18.42;11.90;;;;;;;0.59;58.49;102056.05;1784214;79;21494;-76
2020/12/09 11:27:51;;;;;;;19.23;9.85;;;;;;;0.61;58.41;102059.08;1783930;79;20930;-78
2020/12/09 11:30:20;;;;;;;21.82;12.60;;;;;;;0.64;58.23;102056.93;1783908;79;21225;-79